Tegucigalpa, Honduras
Current Conditions -  °F | °C
As of 8:00 PM on Saturday 20 Dec 2014 (Local Time) from MHTG Reporting Station
Broken Clouds Broken Clouds  
Wind Chill: 22°   Ceiling: 2800
Heat Index: 22°   Visibility: 6mi
Dew Point: 18°   Wind: 5mph
Humidity: 78%   Direction: 10°N
Pressure: 30.09"   Gusts: NA
Location:  14.09°N, 87.22°W
Report Text: MHTG 210200Z 01004KT 9999 BKN028 22/18 Q1019 A3009 NOSIG
Loading
Personal Weather Stations






























Interactive Weather Map New forecast layout! Learn more

10-Day Weather Forecast

Advertisements
Track Severe Weather on mobile